Time;durP1;ratioP1;P1;durP2;ratioP2;P2;SDS_P1;SDS_P2;PMS_P1;PMS_P2;Temp;Humidity;BMP_temperature;BMP_pressure;BME280_temperature;BME280_humidity;BME280_pressure;Samples;Min_cycle;Max_cycle;Signal;HPM_P1;HPM_P2
2022/11/29 00:00:34;;;;;;;11.77;9.80;;;;;;;3.95;100.00;98196.06;15275463;19;20094;-53
2022/11/29 00:05:59;;;;;;;11.30;10.10;;;;;;;3.91;100.00;98190.13;15272348;19;20003;-54
2022/11/29 00:17:13;;;;;;;12.07;10.15;;;;;;;3.88;100.00;98185.03;15276194;19;20020;-57
2022/11/29 00:22:38;;;;;;;13.02;10.75;;;;;;;3.89;100.00;98185.88;15278397;19;20007;-56
2022/11/29 00:28:02;;;;;;;11.65;10.25;;;;;;;3.85;100.00;98190.63;15274061;19;20018;-55
2022/11/29 00:33:29;;;;;;;11.90;10.60;;;;;;;3.87;100.00;98193.19;15275202;19;20518;-55
2022/11/29 00:38:55;;;;;;;12.00;10.68;;;;;;;3.83;100.00;98180.09;15275964;19;20014;-54
2022/11/29 00:44:20;;;;;;;12.30;10.75;;;;;;;3.81;100.00;98179.38;15277833;19;20014;-55
2022/11/29 00:49:47;;;;;;;11.93;10.73;;;;;;;3.83;100.00;98181.91;15276472;19;20033;-56
2022/11/29 00:55:12;;;;;;;11.43;10.20;;;;;;;3.84;100.00;98179.13;15276706;19;20569;-56
2022/11/29 01:00:36;;;;;;;11.88;10.50;;;;;;;3.88;100.00;98190.38;15273484;19;20489;-53
2022/11/29 01:06:09;;;;;;;11.23;10.02;;;;;;;3.88;100.00;98185.03;15267653;19;20509;-50
2022/11/29 01:11:35;;;;;;;11.23;10.02;;;;;;;3.90;100.00;98191.09;15275462;19;20013;-54
2022/11/29 01:17:00;;;;;;;11.35;10.18;;;;;;;3.91;100.00;98195.47;15274217;19;20090;-56
2022/11/29 01:22:27;;;;;;;10.80;9.70;;;;;;;3.91;100.00;98200.78;15271758;19;20061;-53
2022/11/29 01:27:52;;;;;;;10.60;9.48;;;;;;;3.94;100.00;98202.34;15273615;19;20018;-50
2022/11/29 01:33:16;;;;;;;11.60;9.98;;;;;;;3.94;100.00;98203.19;15274884;19;20025;-55
2022/11/29 01:38:43;;;;;;;10.57;9.55;;;;;;;3.97;100.00;98210.13;15268047;19;20014;-56
2022/11/29 01:44:11;;;;;;;11.65;10.45;;;;;;;3.97;100.00;98202.94;15275751;19;20082;-56
2022/11/29 01:49:39;;;;;;;11.60;10.40;;;;;;;3.98;100.00;98201.97;15304794;19;20024;-51
2022/11/29 01:55:12;;;;;;;10.35;9.35;;;;;;;3.99;100.00;98203.69;15272380;19;20073;-55
2022/11/29 02:00:38;;;;;;;11.20;9.85;;;;;;;3.99;100.00;98203.69;15267153;19;20527;-55
2022/11/29 02:06:03;;;;;;;10.85;9.75;;;;;;;3.99;100.00;98209.00;15267792;19;20882;-53
2022/11/29 02:11:59;;;;;;;12.00;10.25;;;;;;;3.98;100.00;98207.31;15259817;19;20015;-51
2022/11/29 02:17:36;;;;;;;12.15;10.38;;;;;;;3.97;100.00;98210.94;15266610;19;20028;-51
2022/11/29 02:23:12;;;;;;;12.13;10.88;;;;;;;3.94;100.00;98205.84;15265991;19;20357;-50
2022/11/29 02:29:15;;;;;;;12.88;11.50;;;;;;;3.95;100.00;98212.88;15262597;19;20015;-54
2022/11/29 02:34:59;;;;;;;11.52;10.32;;;;;;;3.95;100.00;98218.22;15264472;19;20022;-53
2022/11/29 02:40:45;;;;;;;14.07;11.25;;;;;;;3.94;100.00;98213.84;14751263;19;10001079;-53
2022/11/29 02:46:21;;;;;;;12.30;10.93;;;;;;;3.93;100.00;98214.84;15257328;19;20460;-51
2022/11/29 02:51:55;;;;;;;13.52;11.95;;;;;;;3.91;100.00;98222.13;15262288;19;20018;-52
2022/11/29 02:57:27;;;;;;;12.50;11.20;;;;;;;3.93;100.00;98221.97;15263594;19;20082;-51
2022/11/29 03:03:02;;;;;;;12.52;11.23;;;;;;;3.93;100.00;98222.84;15265881;19;20089;-52
2022/11/29 03:08:38;;;;;;;13.73;12.07;;;;;;;3.94;100.00;98229.84;15266097;19;20110;-52
2022/11/29 03:14:14;;;;;;;12.77;11.35;;;;;;;3.93;100.00;98229.97;15265668;19;20082;-54
2022/11/29 03:20:08;;;;;;;12.57;11.27;;;;;;;3.96;100.00;98230.56;15256956;19;20029;-54
2022/11/29 03:25:41;;;;;;;14.75;11.75;;;;;;;3.95;100.00;98239.53;15267829;19;20799;-52
2022/11/29 03:31:13;;;;;;;12.18;10.88;;;;;;;3.96;100.00;98241.22;15276721;19;20017;-52
2022/11/29 03:36:47;;;;;;;13.73;11.57;;;;;;;3.96;100.00;98241.22;15279623;19;20560;-52
2022/11/29 03:42:19;;;;;;;13.35;10.93;;;;;;;3.98;100.00;98243.78;15267619;19;20029;-52
2022/11/29 03:47:53;;;;;;;13.10;11.02;;;;;;;3.97;100.00;98239.44;15265263;19;20018;-56
2022/11/29 03:53:25;;;;;;;12.55;11.25;;;;;;;3.96;100.00;98243.91;15272983;19;20362;-51
2022/11/29 03:58:59;;;;;;;12.57;11.07;;;;;;;3.99;100.00;98235.66;15275394;19;20028;-54
2022/11/29 04:05:04;;;;;;;12.48;11.18;;;;;;;3.99;100.00;98243.66;15278997;19;20028;-54
2022/11/29 04:10:57;;;;;;;13.68;12.05;;;;;;;3.99;100.00;98246.31;15279228;19;20475;-51
2022/11/29 04:17:21;;;;;;;12.45;11.15;;;;;;;3.97;100.00;98250.94;15276044;19;20018;-56
2022/11/29 04:23:17;;;;;;;12.82;11.32;;;;;;;3.99;100.00;98254.31;15271963;19;20022;-52
2022/11/29 04:29:07;;;;;;;12.55;11.15;;;;;;;3.98;100.00;98257.13;15278618;19;20082;-56
2022/11/29 04:34:52;;;;;;;13.30;11.30;;;;;;;3.99;100.00;98267.66;15281773;19;20583;-52
2022/11/29 04:40:42;;;;;;;12.73;11.40;;;;;;;3.98;100.00;98259.78;15274758;19;20019;-51
2022/11/29 04:46:39;;;;;;;13.15;11.25;;;;;;;3.99;100.00;98272.16;15278493;19;20025;-51
2022/11/29 04:52:18;;;;;;;12.60;10.55;;;;;;;4.00;100.00;98272.00;15273994;19;20018;-54
2022/11/29 04:57:52;;;;;;;15.23;11.73;;;;;;;4.03;100.00;98272.75;15280006;19;20049;-51
2022/11/29 05:03:28;;;;;;;14.05;11.70;;;;;;;4.02;100.00;98271.88;15278380;19;20010;-52
2022/11/29 05:09:02;;;;;;;14.25;11.25;;;;;;;4.05;100.00;98278.81;15272380;19;20100;-55
2022/11/29 05:14:42;;;;;;;13.20;11.60;;;;;;;4.06;100.00;98288.50;15277457;19;20412;-53
2022/11/29 05:20:31;;;;;;;13.52;11.05;;;;;;;4.06;100.00;98294.66;15272558;19;20025;-54
2022/11/29 05:26:01;;;;;;;14.48;11.95;;;;;;;4.06;100.00;98284.00;15269278;19;20014;-50
2022/11/29 05:31:56;;;;;;;14.40;11.57;;;;;;;4.09;100.00;98290.91;15267987;19;20041;-51
2022/11/29 05:37:31;;;;;;;12.98;11.25;;;;;;;4.08;100.00;98299.84;15272336;19;20025;-52
2022/11/29 05:43:15;;;;;;;13.35;11.77;;;;;;;4.06;100.00;98315.16;15275860;19;20015;-53
2022/11/29 05:48:52;;;;;;;13.48;11.90;;;;;;;4.06;100.00;98317.81;15271042;19;20014;-52
2022/11/29 05:54:32;;;;;;;14.68;11.63;;;;;;;4.04;100.00;98322.44;15273215;19;20243;-55
2022/11/29 06:00:00;;;;;;;15.68;12.63;;;;;;;4.04;100.00;98327.75;15271430;19;20033;-52
2022/11/29 06:05:34;;;;;;;13.02;11.57;;;;;;;4.05;100.00;98329.47;15265874;19;20026;-56
2022/11/29 06:11:07;;;;;;;13.65;11.30;;;;;;;4.06;100.00;98331.16;15259833;19;20045;-54
2022/11/29 06:16:50;;;;;;;11.93;10.55;;;;;;;4.07;100.00;98338.16;15263354;19;20356;-51
2022/11/29 06:22:52;;;;;;;11.95;10.60;;;;;;;4.10;100.00;98345.91;15267861;19;20374;-53
2022/11/29 06:28:24;;;;;;;;;;;;;;;4.05;100.00;98345.44;15271842;19;20023;-49
2022/11/29 06:33:58;;;;;;;12.05;10.80;;;;;;;4.08;100.00;98342.53;15272263;19;19927;-53
2022/11/29 06:39:26;;;;;;;11.88;10.50;;;;;;;4.11;100.00;98339.63;15271388;19;20041;-51
2022/11/29 06:44:52;;;;;;;11.63;10.38;;;;;;;4.12;100.00;98347.47;15268144;19;20028;-51
2022/11/29 06:50:34;;;;;;;11.70;10.10;;;;;;;4.12;100.00;98347.47;15266868;19;20036;-55
2022/11/29 06:56:10;;;;;;;11.40;10.20;;;;;;;4.16;100.00;98348.09;15270971;19;20085;-52
2022/11/29 07:01:44;;;;;;;11.68;10.48;;;;;;;4.18;100.00;98362.13;15272978;19;20474;-51
2022/11/29 07:07:15;;;;;;;10.65;9.55;;;;;;;4.22;100.00;98373.44;15284742;19;20018;-54
2022/11/29 07:12:44;;;;;;;11.63;10.25;;;;;;;4.24;100.00;98377.66;15287395;19;20774;-54
2022/11/29 07:18:23;;;;;;;10.27;9.20;;;;;;;4.25;100.00;98382.03;15282804;19;20021;-51
2022/11/29 07:23:54;;;;;;;11.38;10.20;;;;;;;4.28;100.00;98384.47;15286064;19;20480;-54
2022/11/29 07:29:33;;;;;;;12.17;9.93;;;;;;;4.31;100.00;98386.88;15279598;19;20098;-54
2022/11/29 07:35:07;;;;;;;11.02;9.75;;;;;;;4.31;100.00;98381.53;15285408;19;20326;-54
2022/11/29 07:40:41;;;;;;;11.05;9.95;;;;;;;4.34;100.00;98384.94;15282870;19;20022;-53
2022/11/29 07:46:09;;;;;;;10.80;9.38;;;;;;;4.38;100.00;98394.38;15281235;19;20015;-50
2022/11/29 07:51:34;;;;;;;11.75;10.13;;;;;;;4.39;100.00;98382.75;15280220;19;20022;-51
2022/11/29 07:56:58;;;;;;;13.23;10.30;;;;;;;4.41;100.00;98384.31;15280773;19;20600;-50
2022/11/29 08:02:32;;;;;;;10.95;9.82;;;;;;;4.43;100.00;98389.53;15278536;19;20045;-56
2022/11/29 08:07:56;;;;;;;10.60;9.52;;;;;;;4.47;100.00;98389.16;15281530;19;20418;-52
2022/11/29 08:13:21;;;;;;;10.90;9.68;;;;;;;4.48;100.00;98401.53;15282136;19;20482;-51
2022/11/29 08:18:56;;;;;;;11.05;9.82;;;;;;;4.53;100.00;98394.97;15278329;19;20007;-53
2022/11/29 08:24:21;;;;;;;13.13;9.73;;;;;;;4.57;100.00;98399.09;15281460;19;20022;-55
2022/11/29 08:29:46;;;;;;;11.35;10.13;;;;;;;4.59;100.00;98407.81;15274924;19;20098;-51
2022/11/29 08:35:14;;;;;;;12.82;10.02;;;;;;;4.59;100.00;98407.81;15280121;19;20097;-56
2022/11/29 08:40:38;;;;;;;11.20;9.82;;;;;;;4.60;100.00;98410.38;15278352;19;20019;-51
2022/11/29 08:46:03;;;;;;;11.60;10.40;;;;;;;4.62;100.00;98419.09;15279052;19;20022;-53
2022/11/29 08:51:37;;;;;;;12.07;10.15;;;;;;;4.66;100.00;98418.84;15277167;19;20018;-56
2022/11/29 08:57:03;;;;;;;16.10;10.90;;;;;;;4.69;100.00;98429.28;15279110;19;20031;-51
2022/11/29 09:02:47;;;;;;;12.50;10.57;;;;;;;4.70;100.00;98431.84;15279969;19;20355;-53
2022/11/29 09:08:14;;;;;;;11.07;9.43;;;;;;;4.73;100.00;98441.41;15277080;19;20018;-50
2022/11/29 09:13:39;;;;;;;10.70;9.60;;;;;;;4.74;100.00;98437.75;15276240;19;20509;-52
2022/11/29 09:19:04;;;;;;;12.02;10.45;;;;;;;4.78;100.00;98444.53;15273031;19;20035;-50
2022/11/29 09:24:32;;;;;;;11.23;10.02;;;;;;;4.83;100.00;98457.50;15275663;19;20467;-55
2022/11/29 09:29:57;;;;;;;10.45;9.35;;;;;;;4.86;100.00;98460.81;15270800;19;20022;-53
2022/11/29 09:35:21;;;;;;;10.63;9.52;;;;;;;4.87;100.00;98454.50;15273547;19;20089;-52
2022/11/29 09:40:54;;;;;;;9.95;8.95;;;;;;;4.91;100.00;98460.44;15274385;19;20015;-53
2022/11/29 09:46:27;;;;;;;10.32;8.73;;;;;;;4.94;100.00;98458.34;15273688;19;20560;-53
2022/11/29 09:51:57;;;;;;;11.60;8.95;;;;;;;4.97;100.00;98467.91;15272439;19;20479;-55
2022/11/29 09:57:26;;;;;;;10.60;9.45;;;;;;;5.03;100.00;98458.56;15276729;19;20094;-55
2022/11/29 10:02:55;;;;;;;9.52;8.55;;;;;;;5.04;100.00;98465.59;15276043;19;20049;-55
2022/11/29 10:08:26;;;;;;;10.35;9.35;;;;;;;5.06;100.00;98458.31;15275589;19;20462;-53
2022/11/29 10:13:57;;;;;;;11.07;8.97;;;;;;;5.07;100.00;98465.38;15277973;19;20019;-57
2022/11/29 10:19:34;;;;;;;11.30;8.63;;;;;;;5.12;100.00;98468.50;15271885;19;20029;-56
2022/11/29 10:25:03;;;;;;;10.95;9.20;;;;;;;5.14;100.00;98466.53;15271204;19;20018;-55
2022/11/29 10:30:30;;;;;;;11.15;9.70;;;;;;;5.17;100.00;98460.97;15270284;19;20018;-55
2022/11/29 10:36:00;;;;;;;10.55;9.45;;;;;;;5.19;100.00;98459.00;15276936;19;20323;-52
2022/11/29 10:41:30;;;;;;;10.73;9.63;;;;;;;5.21;100.00;98465.09;15284763;19;20029;-52
2022/11/29 10:46:58;;;;;;;9.80;8.80;;;;;;;5.23;100.00;98464.94;15288629;19;20022;-52
2022/11/29 10:52:30;;;;;;;10.10;9.10;;;;;;;5.22;100.00;98474.81;15281189;19;20010;-55
2022/11/29 10:58:26;;;;;;;10.98;9.77;;;;;;;5.27;100.00;98460.19;15287842;19;20029;-54
2022/11/29 11:03:59;;;;;;;10.63;9.60;;;;;;;5.28;100.00;98467.25;15281667;19;20024;-56
2022/11/29 11:09:32;;;;;;;10.98;9.35;;;;;;;5.33;100.00;98476.56;15285308;19;20379;-54
2022/11/29 11:14:56;;;;;;;10.13;9.13;;;;;;;5.37;100.00;98472.69;15284747;19;20385;-55
2022/11/29 11:20:32;;;;;;;11.40;10.20;;;;;;;5.44;100.00;98478.38;15282642;19;20082;-57
2022/11/29 11:26:03;;;;;;;10.55;9.40;;;;;;;5.48;100.00;98479.78;15284381;19;20022;-55
2022/11/29 11:31:39;;;;;;;;;;;;;;;5.49;100.00;98486.00;15282620;19;20094;-53
2022/11/29 11:37:22;;;;;;;10.98;9.90;;;;;;;5.59;100.00;98491.41;15286812;19;19938;-54
2022/11/29 11:42:48;;;;;;;12.13;9.80;;;;;;;5.59;100.00;98497.63;15285700;19;20085;-54
2022/11/29 11:48:15;;;;;;;11.35;10.20;;;;;;;5.65;100.00;98491.75;15280846;19;20018;-51
2022/11/29 11:53:45;;;;;;;10.43;9.40;;;;;;;5.68;100.00;98488.00;15284576;19;20098;-52
2022/11/29 11:59:20;;;;;;;10.88;9.23;;;;;;;5.73;100.00;98493.78;15282811;19;20033;-51
2022/11/29 12:04:46;;;;;;;9.98;8.68;;;;;;;5.73;100.00;98487.59;15280050;19;20469;-51
2022/11/29 12:10:24;;;;;;;10.55;9.45;;;;;;;5.74;100.00;98490.13;15278568;19;20481;-57
2022/11/29 12:15:52;;;;;;;9.60;8.60;;;;;;;5.77;100.00;98489.00;15282799;19;20022;-58
2022/11/29 12:21:43;;;;;;;9.98;8.50;;;;;;;5.78;100.00;98491.56;15276068;19;20014;-54
2022/11/29 12:27:26;;;;;;;10.77;8.80;;;;;;;5.74;100.00;98500.00;15281888;19;20503;-53
2022/11/29 12:33:20;;;;;;;9.77;8.82;;;;;;;5.75;100.00;98504.38;15279793;19;20025;-51
2022/11/29 12:39:16;;;;;;;11.50;10.25;;;;;;;5.70;100.00;98515.44;15278319;19;20022;-53
2022/11/29 12:44:58;;;;;;;11.32;10.02;;;;;;;5.67;100.00;98513.00;15274943;19;20039;-52
2022/11/29 12:50:28;;;;;;;;;;;;;;;5.63;100.00;98508.88;15275644;19;20022;-51
2022/11/29 12:56:01;;;;;;;11.52;10.32;;;;;;;5.71;100.00;98522.47;15275637;19;20336;-53
2022/11/29 13:01:38;;;;;;;12.55;9.40;;;;;;;5.69;100.00;98529.78;15273104;19;20020;-53
2022/11/29 13:07:10;;;;;;;11.13;9.90;;;;;;;5.75;100.00;98531.94;15279361;19;20026;-54
2022/11/29 13:12:40;;;;;;;10.38;9.38;;;;;;;5.79;100.00;98525.34;15274409;19;20086;-55
2022/11/29 13:18:14;;;;;;;10.47;9.03;;;;;;;5.82;100.00;98526.91;15277455;19;20018;-50
2022/11/29 13:23:46;;;;;;;11.55;9.57;;;;;;;5.83;100.00;98531.28;15278479;19;20023;-54
2022/11/29 13:29:26;;;;;;;11.23;9.95;;;;;;;5.86;100.00;98531.88;15277802;19;20022;-52
2022/11/29 13:34:56;;;;;;;9.98;8.98;;;;;;;5.88;100.00;98541.59;15274555;19;20019;-53
2022/11/29 13:40:33;;;;;;;12.20;9.05;;;;;;;5.88;100.00;98544.28;15275330;19;20479;-52
2022/11/29 13:46:08;;;;;;;9.82;8.93;;;;;;;5.88;100.00;98539.75;15277884;19;20058;-49
2022/11/29 13:51:40;;;;;;;10.13;9.13;;;;;;;5.90;100.00;98540.47;15276370;19;20019;-53
2022/11/29 13:57:08;;;;;;;9.70;8.70;;;;;;;5.91;100.00;98546.69;15278404;19;20026;-54
2022/11/29 14:02:37;;;;;;;9.45;8.45;;;;;;;5.93;100.00;98548.25;15276125;19;20022;-53
2022/11/29 14:08:29;;;;;;;10.18;9.18;;;;;;;5.95;100.00;98550.78;15270366;19;20026;-51
2022/11/29 14:14:25;;;;;;;9.63;8.60;;;;;;;5.96;100.00;98547.16;15267842;19;20029;-50
2022/11/29 14:19:50;;;;;;;10.30;9.18;;;;;;;5.97;100.00;98554.19;15265778;19;20018;-55
2022/11/29 14:25:34;;;;;;;9.27;8.38;;;;;;;5.97;100.00;98548.84;15273222;19;20022;-53
2022/11/29 14:31:51;;;;;;;10.25;8.80;;;;;;;5.96;100.00;98552.50;15276704;19;20018;-55
2022/11/29 14:37:28;;;;;;;8.95;8.05;;;;;;;5.94;100.00;98552.63;15322711;19;20022;-55
2022/11/29 14:42:56;;;;;;;9.48;8.13;;;;;;;5.93;100.00;98558.94;15309127;19;20021;-53
2022/11/29 14:48:33;;;;;;;9.77;8.77;;;;;;;5.92;100.00;98556.41;15309252;19;20023;-56
2022/11/29 14:54:08;;;;;;;10.55;8.90;;;;;;;5.94;100.00;98566.00;15292088;19;20019;-56
2022/11/29 14:59:58;;;;;;;10.48;9.25;;;;;;;5.93;100.00;98569.66;15267673;19;20104;-54
2022/11/29 15:05:29;;;;;;;10.93;9.82;;;;;;;5.95;100.00;98578.41;15264922;19;20090;-54
2022/11/29 15:10:59;;;;;;;11.40;8.97;;;;;;;5.96;100.00;98585.44;15265524;19;20090;-53
2022/11/29 15:16:38;;;;;;;10.18;9.18;;;;;;;5.95;100.00;98588.22;15267145;19;20014;-51
2022/11/29 15:22:20;;;;;;;13.18;10.35;;;;;;;5.95;100.00;98589.09;15270595;19;20809;-55
2022/11/29 15:27:53;;;;;;;12.65;9.30;;;;;;;5.94;100.00;98591.91;15285274;19;20018;-52
2022/11/29 15:33:29;;;;;;;10.05;9.10;;;;;;;5.94;100.00;98598.09;15278611;19;20022;-51
2022/11/29 15:38:56;;;;;;;10.48;9.38;;;;;;;5.93;100.00;98606.25;15281109;19;20065;-52
2022/11/29 15:44:31;;;;;;;17.90;9.70;;;;;;;5.94;100.00;98613.31;15281104;19;20023;-52
2022/11/29 15:49:59;;;;;;;11.10;10.00;;;;;;;5.94;100.00;98624.00;15277518;19;20455;-52
2022/11/29 15:55:23;;;;;;;10.95;9.85;;;;;;;5.94;100.00;98624.00;15278203;19;20068;-52
2022/11/29 16:00:50;;;;;;;10.93;9.82;;;;;;;5.90;100.00;98630.56;15278610;19;20029;-56
2022/11/29 16:06:31;;;;;;;12.80;10.43;;;;;;;5.88;100.00;98630.69;15279012;19;20024;-53
2022/11/29 16:11:56;;;;;;;11.70;10.50;;;;;;;5.85;100.00;98642.47;15275962;19;20014;-49
2022/11/29 16:17:20;;;;;;;11.38;10.15;;;;;;;5.84;100.00;98648.81;15281227;19;20094;-55
2022/11/29 16:22:48;;;;;;;11.57;10.38;;;;;;;5.82;100.00;98653.41;15280942;19;20015;-51
2022/11/29 16:28:12;;;;;;;10.45;9.43;;;;;;;5.83;100.00;98659.63;15280360;19;20028;-50
2022/11/29 16:33:39;;;;;;;11.25;10.15;;;;;;;5.83;100.00;98659.63;15276250;19;20507;-53
2022/11/29 16:39:13;;;;;;;11.95;10.50;;;;;;;5.83;100.00;98668.47;15278999;19;20035;-53
2022/11/29 16:44:58;;;;;;;12.52;11.00;;;;;;;5.81;100.00;98670.47;15274898;19;20022;-53
2022/11/29 16:50:26;;;;;;;11.65;10.55;;;;;;;5.82;100.00;98672.13;15275305;19;20022;-56
2022/11/29 16:55:54;;;;;;;12.40;11.10;;;;;;;5.83;100.00;98675.66;15276079;19;20018;-51
2022/11/29 17:01:25;;;;;;;11.50;9.80;;;;;;;5.82;100.00;98677.47;15269436;19;20014;-55
2022/11/29 17:06:50;;;;;;;10.63;9.60;;;;;;;5.81;100.00;98678.47;15277378;19;20527;-53
2022/11/29 17:12:19;;;;;;;10.55;9.30;;;;;;;5.81;100.00;98673.13;15269568;19;20082;-52
2022/11/29 17:17:44;;;;;;;9.40;8.40;;;;;;;5.80;100.00;98675.91;15276299;19;20018;-52
2022/11/29 17:23:09;;;;;;;10.98;8.80;;;;;;;5.79;100.00;98679.56;15279152;19;20078;-55
2022/11/29 17:28:37;;;;;;;8.85;7.95;;;;;;;5.78;100.00;98681.41;15275253;19;20082;-50
2022/11/29 17:34:02;;;;;;;8.75;7.90;;;;;;;5.78;100.00;98681.41;15273670;19;20026;-54
2022/11/29 17:39:27;;;;;;;8.60;7.65;;;;;;;5.76;100.00;98679.84;15274979;19;20026;-54
2022/11/29 17:44:54;;;;;;;8.25;7.45;;;;;;;5.70;100.00;98687.34;15271993;19;20014;-52
2022/11/29 17:50:19;;;;;;;8.05;7.25;;;;;;;5.71;100.00;98689.06;15272648;19;20034;-53
2022/11/29 17:55:45;;;;;;;8.15;7.30;;;;;;;5.71;100.00;98697.09;15271703;19;20022;-54
2022/11/29 18:01:15;;;;;;;9.40;7.50;;;;;;;5.70;100.00;98699.88;15270302;19;20010;-53
2022/11/29 18:06:48;;;;;;;8.20;7.40;;;;;;;5.69;100.00;98701.69;15270503;19;20018;-53
2022/11/29 18:12:13;;;;;;;9.20;7.75;;;;;;;5.69;100.00;98706.22;15267772;19;20021;-57
2022/11/29 18:17:40;;;;;;;8.65;7.38;;;;;;;5.68;100.00;98700.00;15269906;19;20027;-53
2022/11/29 18:23:05;;;;;;;8.57;6.97;;;;;;;5.68;100.00;98699.16;15271552;19;20019;-53
2022/11/29 18:28:29;;;;;;;8.57;7.10;;;;;;;5.68;100.00;98707.19;15270981;19;20849;-56
2022/11/29 18:33:58;;;;;;;9.25;7.63;;;;;;;5.68;100.00;98709.84;15243629;19;20410;-56
2022/11/29 18:39:25;;;;;;;8.90;7.53;;;;;;;5.69;100.00;98711.56;15272215;19;20025;-54
2022/11/29 18:44:50;;;;;;;7.85;7.05;;;;;;;5.69;100.00;98716.91;15269769;19;20027;-55
2022/11/29 18:50:19;;;;;;;8.05;6.93;;;;;;;5.68;100.00;98715.19;15259689;19;20014;-57
2022/11/29 18:55:44;;;;;;;7.50;6.80;;;;;;;5.67;100.00;98724.19;15268623;19;20487;-54
2022/11/29 19:01:13;;;;;;;6.90;6.20;;;;;;;5.64;100.00;98719.94;15280368;19;20022;-55
2022/11/29 19:06:41;;;;;;;8.80;7.00;;;;;;;5.64;100.00;98713.72;15286088;19;20031;-55
2022/11/29 19:12:06;;;;;;;7.95;7.15;;;;;;;5.65;100.00;98716.28;15281167;19;20018;-53
2022/11/29 19:17:31;;;;;;;7.97;7.18;;;;;;;5.65;100.00;98726.13;15284900;19;20017;-54
2022/11/29 19:23:03;;;;;;;7.90;7.07;;;;;;;5.64;100.00;98719.94;15285228;19;20394;-52
2022/11/29 19:28:28;;;;;;;7.55;6.78;;;;;;;5.64;100.00;98724.41;15284726;19;20028;-55
2022/11/29 19:33:53;;;;;;;7.82;7.13;;;;;;;5.65;100.00;98721.63;15278154;19;20026;-52
2022/11/29 19:39:24;;;;;;;7.55;6.75;;;;;;;5.63;100.00;98728.94;15281410;19;20022;-56
2022/11/29 19:44:49;;;;;;;8.55;7.30;;;;;;;5.62;100.00;98721.00;15278037;19;20029;-54
2022/11/29 19:50:34;;;;;;;9.30;8.32;;;;;;;5.61;100.00;98725.53;15277307;19;20371;-55
2022/11/29 19:56:01;;;;;;;9.80;8.80;;;;;;;5.61;100.00;98736.22;15279646;19;20853;-56
2022/11/29 20:01:29;;;;;;;8.88;7.97;;;;;;;5.62;100.00;98739.72;15274539;19;20043;-58
2022/11/29 20:06:59;;;;;;;7.97;7.18;;;;;;;5.61;100.00;98746.03;15281111;19;20037;-56
2022/11/29 20:12:27;;;;;;;8.15;7.30;;;;;;;5.60;100.00;98750.56;15278320;19;20027;-53
2022/11/29 20:17:51;;;;;;;7.30;6.60;;;;;;;5.58;100.00;98749.81;15281506;19;20102;-54
2022/11/29 20:23:16;;;;;;;8.38;7.53;;;;;;;5.53;100.00;98754.66;15281258;19;20028;-54
2022/11/29 20:28:43;;;;;;;8.48;7.57;;;;;;;5.44;100.00;98750.03;15278872;19;20018;-56
2022/11/29 20:34:11;;;;;;;8.90;8.00;;;;;;;5.38;100.00;98756.72;15277993;19;20024;-56
2022/11/29 20:39:44;;;;;;;8.13;7.32;;;;;;;5.34;100.00;98749.94;15278368;19;20113;-56
2022/11/29 20:45:15;;;;;;;9.75;7.68;;;;;;;5.28;100.00;98755.75;15277253;19;20033;-55
2022/11/29 20:50:40;;;;;;;8.95;7.20;;;;;;;5.27;100.00;98762.06;15275884;19;20035;-53
2022/11/29 20:56:07;;;;;;;7.82;7.10;;;;;;;5.27;100.00;98760.25;15275691;19;21006;-50
2022/11/29 21:01:34;;;;;;;7.28;6.57;;;;;;;5.28;100.00;98769.09;15274190;19;20537;-50
2022/11/29 21:06:59;;;;;;;8.23;7.43;;;;;;;5.29;100.00;98770.81;15277621;19;20030;-53
2022/11/29 21:12:24;;;;;;;7.68;6.90;;;;;;;5.30;100.00;98777.84;15275042;19;20018;-54
2022/11/29 21:17:52;;;;;;;8.10;7.30;;;;;;;5.25;100.00;98776.38;15277210;19;20014;-51
2022/11/29 21:23:23;;;;;;;9.40;7.50;;;;;;;5.26;100.00;98779.91;15278953;19;20026;-51
2022/11/29 21:28:56;;;;;;;8.63;7.80;;;;;;;5.27;100.00;98788.75;15275726;19;20027;-53
2022/11/29 21:34:23;;;;;;;8.05;7.25;;;;;;;5.28;100.00;98793.16;15275185;19;20045;-54
2022/11/29 21:39:50;;;;;;;8.50;7.40;;;;;;;5.30;100.00;98800.06;15274864;19;20094;-53
2022/11/29 21:45:15;;;;;;;8.18;7.38;;;;;;;5.32;100.00;98795.47;15272229;19;20029;-55
2022/11/29 21:50:43;;;;;;;7.78;7.05;;;;;;;5.34;100.00;98798.03;15268498;19;20106;-52
2022/11/29 21:56:09;;;;;;;7.68;6.88;;;;;;;5.36;100.00;98796.94;15267157;19;20105;-51
2022/11/29 22:01:34;;;;;;;8.43;7.53;;;;;;;5.37;100.00;98805.78;15275343;19;20019;-52
2022/11/29 22:07:01;;;;;;;7.95;6.97;;;;;;;5.35;100.00;98805.91;15273783;19;20743;-54
2022/11/29 22:12:26;;;;;;;8.55;6.85;;;;;;;5.34;100.00;98801.53;15270300;19;20010;-54
2022/11/29 22:17:51;;;;;;;7.85;7.05;;;;;;;5.35;100.00;98805.06;15269297;19;20090;-53
2022/11/29 22:23:19;;;;;;;8.32;7.47;;;;;;;5.34;100.00;98803.38;15274508;19;20025;-53
2022/11/29 22:28:44;;;;;;;8.68;7.75;;;;;;;5.36;100.00;98812.97;15269848;19;20010;-55
2022/11/29 22:34:09;;;;;;;8.73;7.88;;;;;;;5.35;100.00;98803.25;15263031;19;20257;-53
2022/11/29 22:39:37;;;;;;;7.90;7.20;;;;;;;5.35;100.00;98807.75;15269197;19;20744;-55
2022/11/29 22:45:03;;;;;;;8.30;7.50;;;;;;;5.35;100.00;98805.06;15265548;19;20038;-50
2022/11/29 22:50:27;;;;;;;8.55;7.75;;;;;;;5.32;100.00;98805.31;15271675;19;20534;-53
2022/11/29 22:55:59;;;;;;;8.13;7.32;;;;;;;5.33;100.00;98802.50;15265275;19;20015;-54
2022/11/29 23:01:25;;;;;;;9.60;7.13;;;;;;;5.31;100.00;98800.94;15271442;19;20117;-52
2022/11/29 23:06:51;;;;;;;8.85;8.05;;;;;;;5.27;100.00;98796.78;15269674;19;20042;-52
2022/11/29 23:12:19;;;;;;;8.70;7.90;;;;;;;5.24;100.00;98804.06;15265521;19;20019;-56
2022/11/29 23:17:44;;;;;;;8.73;7.93;;;;;;;5.22;100.00;98791.78;15266324;19;20057;-51
2022/11/29 23:23:08;;;;;;;8.57;7.78;;;;;;;5.18;100.00;98803.66;15271299;19;20018;-52
2022/11/29 23:28:38;;;;;;;8.45;7.63;;;;;;;5.17;100.00;98794.81;15267663;19;20022;-54
2022/11/29 23:34:02;;;;;;;9.35;8.45;;;;;;;5.17;100.00;98802.84;15268043;19;20126;-50
2022/11/29 23:39:27;;;;;;;9.02;8.23;;;;;;;5.16;100.00;98803.81;15267110;19;20360;-53
2022/11/29 23:44:55;;;;;;;8.50;7.70;;;;;;;5.16;100.00;98797.63;15275174;19;20035;-54
2022/11/29 23:50:20;;;;;;;9.70;8.80;;;;;;;5.14;100.00;98803.06;15283029;19;20097;-53
2022/11/29 23:55:46;;;;;;;9.25;8.35;;;;;;;5.13;100.00;98803.19;15274071;19;20370;-55
